Map

Track Data

SID SEASON NUMBER BASIN SUBBASIN NAME ISO_TIME NATURE LAT LON WMO_WIND WMO_PRES WMO_AGENCY TRACK_TYPE DIST2LAND LANDFALL IFLAG USA_AGENCY USA_ATCF_ID USA_LAT USA_LON USA_RECORD USA_STATUS USA_WIND USA_PRES USA_SSHS USA_R34_NE USA_R34_SE USA_R34_SW USA_R34_NW USA_R50_NE USA_R50_SE USA_R50_SW USA_R50_NW USA_R64_NE USA_R64_SE USA_R64_SW USA_R64_NW USA_POCI USA_ROCI USA_RMW USA_EYE TOKYO_LAT TOKYO_LON TOKYO_GRADE TOKYO_WIND TOKYO_PRES TOKYO_R50_DIR TOKYO_R50_LONG TOKYO_R50_SHORT TOKYO_R30_DIR TOKYO_R30_LONG TOKYO_R30_SHORT TOKYO_LAND CMA_LAT CMA_LON CMA_CAT CMA_WIND CMA_PRES HKO_LAT HKO_LON HKO_CAT HKO_WIND HKO_PRES NEWDELHI_LAT NEWDELHI_LON NEWDELHI_GRADE NEWDELHI_WIND NEWDELHI_PRES NEWDELHI_CI NEWDELHI_DP NEWDELHI_POCI REUNION_LAT REUNION_LON REUNION_TYPE REUNION_WIND REUNION_PRES REUNION_TNUM REUNION_CI REUNION_RMW REUNION_R34_NE REUNION_R34_SE REUNION_R34_SW REUNION_R34_NW REUNION_R50_NE REUNION_R50_SE REUNION_R50_SW REUNION_R50_NW REUNION_R64_NE REUNION_R64_SE REUNION_R64_SW REUNION_R64_NW BOM_LAT BOM_LON BOM_TYPE BOM_WIND BOM_PRES BOM_TNUM BOM_CI BOM_RMW BOM_R34_NE BOM_R34_SE BOM_R34_SW BOM_R34_NW BOM_R50_NE BOM_R50_SE BOM_R50_SW BOM_R50_NW BOM_R64_NE BOM_R64_SE BOM_R64_SW BOM_R64_NW BOM_ROCI BOM_POCI BOM_EYE BOM_POS_METHOD BOM_PRES_METHOD NADI_LAT NADI_LON NADI_CAT NADI_WIND NADI_PRES WELLINGTON_LAT WELLINGTON_LON WELLINGTON_WIND WELLINGTON_PRES DS824_LAT DS824_LON DS824_STAGE DS824_WIND DS824_PRES TD9636_LAT TD9636_LON TD9636_STAGE TD9636_WIND TD9636_PRES TD9635_LAT TD9635_LON TD9635_WIND TD9635_PRES TD9635_ROCI NEUMANN_LAT NEUMANN_LON NEUMANN_CLASS NEUMANN_WIND NEUMANN_PRES MLC_LAT MLC_LON MLC_CLASS MLC_WIND MLC_PRES USA_GUST BOM_GUST BOM_GUST_PER REUNION_GUST REUNION_GUST_PER USA_SEAHGT USA_SEARAD_NE USA_SEARAD_SE USA_SEARAD_SW USA_SEARAD_NW STORM_SPEED STORM_DIR
2021207N14248 2021 43 EP MM JIMENA 2021-07-25 12:00:00 DS 13.7000 -111.600 PROVISIONAL 949 949 O_____________ nhc_working_bt EP092021 13.7000 -111.600 LO 15 -3 8 271
2021207N14248 2021 43 EP MM JIMENA 2021-07-25 15:00:00 DS 13.7102 -112.017 PROVISIONAL 979 979 P_____________ EP092021 13.7102 -112.017 LO 15 -3 8 270
2021207N14248 2021 43 EP MM JIMENA 2021-07-25 18:00:00 DS 13.7000 -112.400 PROVISIONAL 1011 1011 O_____________ nhc_working_bt EP092021 13.7000 -112.400 LO 15 -3 7 266
2021207N14248 2021 43 EP MM JIMENA 2021-07-25 21:00:00 DS 13.6574 -112.723 PROVISIONAL 1035 1035 P_____________ EP092021 13.6574 -112.723 LO 15 -3 6 260
2021207N14248 2021 43 EP MM JIMENA 2021-07-26 00:00:00 DS 13.6000 -113.000 PROVISIONAL 1066 1066 O_____________ nhc_working_bt EP092021 13.6000 -113.000 LO 15 -3 5 259
2021207N14248 2021 43 EP MM JIMENA 2021-07-26 03:00:00 DS 13.5575 -113.257 PROVISIONAL 1091 1091 P_____________ EP092021 13.5575 -113.257 LO 15 -3 5 258
2021207N14248 2021 43 EP MM JIMENA 2021-07-26 06:00:00 DS 13.5000 -113.500 PROVISIONAL 1114 1114 O_____________ nhc_working_bt EP092021 13.5000 -113.500 LO 15 -3 5 251
2021207N14248 2021 43 EP MM JIMENA 2021-07-26 09:00:00 DS 13.3999 -113.735 PROVISIONAL 1132 1132 P_____________ EP092021 13.3999 -113.735 LO 17 -3 5 248
2021207N14248 2021 43 EP MM JIMENA 2021-07-26 12:00:00 DS 13.3000 -114.000 PROVISIONAL 1154 1154 O_____________ nhc_working_bt EP092021 13.3000 -114.000 LO 20 -3 6 255
2021207N14248 2021 43 EP MM JIMENA 2021-07-26 15:00:00 DS 13.2425 -114.327 PROVISIONAL 1176 1176 P_____________ EP092021 13.2425 -114.327 LO 20 -3 7 262
2021207N14248 2021 43 EP MM JIMENA 2021-07-26 18:00:00 DS 13.2000 -114.700 PROVISIONAL 1193 1193 O_____________ nhc_working_bt EP092021 13.2000 -114.700 LO 20 -3 8 263
2021207N14248 2021 43 EP MM JIMENA 2021-07-26 21:00:00 DS 13.1500 -115.107 PROVISIONAL 1211 1211 P_____________ EP092021 13.1500 -115.107 LO 20 -3 8 263
2021207N14248 2021 43 EP MM JIMENA 2021-07-27 00:00:00 DS 13.1000 -115.500 PROVISIONAL 1240 1240 O_____________ nhc_working_bt EP092021 13.1000 -115.500 LO 20 1008 -3 1012 180 30 7 262
2021207N14248 2021 43 EP MM JIMENA 2021-07-27 03:00:00 DS 13.0574 -115.822 PROVISIONAL 1255 1255 P_____________ EP092021 13.0574 -115.822 LO 20 1008 -3 1012 180 30 6 260
2021207N14248 2021 43 EP MM JIMENA 2021-07-27 06:00:00 DS 13.0000 -116.100 PROVISIONAL 1281 1281 O_____________ nhc_working_bt EP092021 13.0000 -116.100 LO 20 1008 -3 1012 180 30 6 255
2021207N14248 2021 43 EP MM JIMENA 2021-07-27 09:00:00 DS 12.9150 -116.373 PROVISIONAL 1307 1307 P_____________ EP092021 12.9150 -116.373 LO 20 1008 -3 1011 180 30 5 248
2021207N14248 2021 43 EP MM JIMENA 2021-07-27 12:00:00 DS 12.8000 -116.600 PROVISIONAL 1327 1327 O_____________ nhc_working_bt EP092021 12.8000 -116.600 LO 20 1008 -3 1011 180 30 5 232
2021207N14248 2021 43 EP MM JIMENA 2021-07-27 15:00:00 DS 12.6349 -116.743 PROVISIONAL 1352 1352 P_____________ EP092021 12.6349 -116.743 LO 20 1008 -3 1011 180 25 4 224
2021207N14248 2021 43 EP MM JIMENA 2021-07-27 18:00:00 DS 12.5000 -116.900 PROVISIONAL 1373 1373 O_____________ nhc_working_bt EP092021 12.5000 -116.900 LO 20 1008 -3 1011 180 20 4 244
2021207N14248 2021 43 EP MM JIMENA 2021-07-27 21:00:00 DS 12.4399 -117.155 PROVISIONAL 1400 1396 P_____________ EP092021 12.4399 -117.155 LO 22 1008 -3 1011 180 35 6 270
2021207N14248 2021 43 EP MM JIMENA 2021-07-28 00:00:00 DS 12.5000 -117.500 PROVISIONAL 1408 1404 O_____________ nhc_working_bt EP092021 12.5000 -117.500 LO 25 1008 -3 1011 180 50 8 290
2021207N14248 2021 43 EP MM JIMENA 2021-07-28 03:00:00 DS 12.7201 -117.950 PROVISIONAL 1414 1411 P_____________ EP092021 12.7201 -117.950 LO 25 1008 -3 1011 180 50 10 300
2021207N14248 2021 43 EP MM JIMENA 2021-07-28 06:00:00 DS 13.0000 -118.400 PROVISIONAL 1419 1414 O_____________ nhc_working_bt EP092021 13.0000 -118.400 LO 25 1008 -3 1011 180 50 9 304
2021207N14248 2021 43 EP MM JIMENA 2021-07-28 09:00:00 DS 13.2148 -118.700 PROVISIONAL 1421 1418 P_____________ EP092021 13.2148 -118.700 LO 25 1008 -3 1011 180 45 7 304
2021207N14248 2021 43 EP MM JIMENA 2021-07-28 12:00:00 DS 13.4000 -119.000 PROVISIONAL 1425 1423 O_____________ nhc_working_bt EP092021 13.4000 -119.000 LO 25 1008 -3 1011 180 40 8 298
2021207N14248 2021 43 EP MM JIMENA 2021-07-28 15:00:00 DS 13.5799 -119.412 PROVISIONAL 1437 1437 P_____________ EP092021 13.5799 -119.412 LO 25 1008 -3 1011 180 40 9 289
2021207N14248 2021 43 EP MM JIMENA 2021-07-28 18:00:00 DS 13.7000 -119.900 PROVISIONAL 1465 1465 O_____________ nhc_working_bt EP092021 13.7000 -119.900 LO 25 1008 -3 1011 180 40 10 279
2021207N14248 2021 43 EP MM JIMENA 2021-07-28 21:00:00 DS 13.7300 -120.443 PROVISIONAL 1503 1503 P_____________ EP092021 13.7300 -120.443 LO 27 1007 -3 1011 180 40 11 270
2021207N14248 2021 43 EP MM JIMENA 2021-07-29 00:00:00 DS 13.7000 -121.000 PROVISIONAL 1543 1543 O_____________ nhc_working_bt EP092021 13.7000 -121.000 LO 30 1007 -3 1011 180 40 11 267
2021207N14248 2021 43 EP MM JIMENA 2021-07-29 03:00:00 DS 13.6650 -121.538 PROVISIONAL 1576 1576 P_____________ EP092021 13.6650 -121.538 LO 30 1007 -3 1011 180 40 10 264
2021207N14248 2021 43 EP MM JIMENA 2021-07-29 06:00:00 DS 13.6000 -122.000 PROVISIONAL 1618 1618 O_____________ nhc_working_bt EP092021 13.6000 -122.000 LO 30 1007 -3 1011 180 40 8 258
2021207N14248 2021 43 EP MM JIMENA 2021-07-29 09:00:00 DS 13.5073 -122.322 PROVISIONAL 1647 1647 P_____________ EP092021 13.5073 -122.322 LO 30 1007 -3 1011 180 40 6 251
2021207N14248 2021 43 EP MM JIMENA 2021-07-29 12:00:00 DS 13.4000 -122.600 PROVISIONAL 1676 1676 O_____________ nhc_working_bt EP092021 13.4000 -122.600 LO 30 1007 -3 1011 180 40 7 251
2021207N14248 2021 43 EP MM JIMENA 2021-07-29 15:00:00 DS 13.3000 -122.958 PROVISIONAL 1712 1712 P_____________ EP092021 13.3000 -122.958 LO 30 1007 -3 1011 180 55 7 254
2021207N14248 2021 43 EP MM JIMENA 2021-07-29 18:00:00 DS 13.2000 -123.300 PROVISIONAL 1742 1742 O_____________ nhc_working_bt EP092021 13.2000 -123.300 LO 30 1007 -3 1011 180 70 6 252
2021207N14248 2021 43 EP MM JIMENA 2021-07-29 21:00:00 DS 13.1074 -123.557 PROVISIONAL 1772 1772 P_____________ EP092021 13.1074 -123.557 LO 30 1007 -3 1011 180 70 5 248
2021207N14248 2021 43 EP MM JIMENA 2021-07-30 00:00:00 DS 13.0000 -123.800 PROVISIONAL 1794 1794 O_____________ nhc_working_bt EP092021 13.0000 -123.800 LO 30 1007 -3 1011 180 70 6 244
2021207N14248 2021 43 EP MM JIMENA 2021-07-30 03:00:00 DS 12.8500 -124.093 PROVISIONAL 1833 1833 P_____________ EP092021 12.8500 -124.093 LO 30 1007 -3 1011 180 70 7 243
2021207N14248 2021 43 EP MM JIMENA 2021-07-30 06:00:00 DS 12.7000 -124.400 PROVISIONAL 1863 1863 O_____________ nhc_working_bt EP092021 12.7000 -124.400 LO 30 1007 -3 1011 180 70 40 7 246
2021207N14248 2021 43 EP MM JIMENA 2021-07-30 09:00:00 DS 12.5850 -124.700 PROVISIONAL 1893 1893 P_____________ EP092021 12.5850 -124.700 LO 30 1007 -3 1011 180 70 6 251
2021207N14248 2021 43 EP MM JIMENA 2021-07-30 12:00:00 DS 12.5000 -125.000 PROVISIONAL 1923 1923 O_____________ nhc_working_bt EP092021 12.5000 -125.000 LO 30 1007 -3 1011 180 70 40 6 257
2021207N14248 2021 43 EP MM JIMENA 2021-07-30 15:00:00 DS 12.4499 -125.292 PROVISIONAL 1954 1954 P_____________ EP092021 12.4499 -125.292 LO 27 1007 -3 1011 180 70 6 260
2021207N14248 2021 43 EP MM JIMENA 2021-07-30 18:00:00 TS 12.4000 -125.600 PROVISIONAL 1976 1976 O_____________ nhc_working_bt EP092021 12.4000 -125.600 TD 25 1007 -1 1011 180 70 35 6 261
2021207N14248 2021 43 EP MM JIMENA 2021-07-30 21:00:00 TS 12.3608 -125.885 PROVISIONAL 1999 1999 P_____________ EP092021 12.3075 -125.950 TD 25 1007 -1 1011 180 70 5 265
2021207N14248 2021 43 EP MM JIMENA 2021-07-31 00:00:00 TS 12.3500 -126.150 PROVISIONAL 2022 2022 O_____________ nhc_working_bt EP092021 12.2000 -126.300 TD 25 1007 -1 1011 180 70 35 5 262
2021207N14248 2021 43 EP MM JIMENA 2021-07-31 03:00:00 TS 12.2811 -126.439 PROVISIONAL 2045 2045 P_____________ EP092021 12.0849 -126.600 TD 25 1007 -1 1011 180 70 6 253
2021207N14248 2021 43 EP MM JIMENA 2021-07-31 06:00:00 TS 12.1696 -126.740 PROVISIONAL 2076 2076 O_____________ nhc_working_bt EP092021 12.0000 -126.900 TD 25 1008 -1 1012 180 70 35 6 251
2021207N14248 2021 43 EP MM JIMENA 2021-07-31 09:00:00 TS 12.0901 -127.008 PROVISIONAL 2107 2107 P_____________ EP092021 12.0226 -127.265 TD 25 1008 -1 1012 180 70 6 251
2021207N14248 2021 43 EP MM JIMENA 2021-07-31 12:00:00 TS 11.9805 -127.287 PROVISIONAL 2138 2138 O_____________ nhc_working_bt EP092021 12.0000 -127.600 TD 25 1008 -1 1012 180 70 35 7 239
2021207N14248 2021 43 EP MM JIMENA 2021-07-31 15:00:00 TS 11.7324 -127.613 PROVISIONAL 2185 2185 P_____________ EP092021 11.7500 -127.890 TD 25 1008 -1 1012 180 70 7 227
2021207N14248 2021 43 EP MM JIMENA 2021-07-31 18:00:00 TS 11.5078 -127.807 PROVISIONAL 2216 2208 O_____________ nhc_working_bt EP092021 11.5000 -128.000 TD 25 1008 -1 1012 180 70 35 3 199
2021207N14248 2021 43 EP MM JIMENA 2021-07-31 21:00:00 TS 11.4595 -127.705 PROVISIONAL 2208 2193 P_____________ EP092021 11.4400 -127.817 TD 25 1008 -1 1012 180 70 3 91
2021207N14248 2021 43 EP MM JIMENA 2021-08-01 00:00:00 TS 11.5000 -127.500 PROVISIONAL 2193 2185 O_____________ nhc_working_bt EP092021 11.5000 -127.500 TD 25 1008 -1 1012 180 70 35 3 78
2021207N14248 2021 43 EP MM JIMENA 2021-08-01 03:00:00 TS 11.5243 -127.387 PROVISIONAL 2185 2170 P_____________ EP092021 11.6200 -127.198 TD 25 1008 -1 1012 195 70 2 51
2021207N14248 2021 43 EP MM JIMENA 2021-08-01 06:00:00 TS 11.6357 -127.329 PROVISIONAL 2170 2146 O_____________ nhc_working_bt EP092021 11.8000 -127.000 TD 25 1008 -1 1012 210 70 35 4 11
2021207N14248 2021 43 EP MM JIMENA 2021-08-01 09:00:00 TS 11.9222 -127.311 PROVISIONAL 2146 2130 P_____________ EP092021 12.0224 -127.017 TD 25 1008 -1 1011 210 70 6 355
2021207N14248 2021 43 EP MM JIMENA 2021-08-01 12:00:00 DS 12.2218 -127.386 PROVISIONAL 2130 2123 O_____________ nhc_working_bt EP092021 12.2000 -127.200 LO 25 1008 -3 1011 210 70 35 5 332
2021207N14248 2021 43 EP MM JIMENA 2021-08-01 15:00:00 DS 12.3715 -127.562 PROVISIONAL 2131 2131 P_____________ EP092021 12.2300 -127.455 LO 25 1008 -3 1011 210 70 5 298
2021207N14248 2021 43 EP MM JIMENA 2021-08-01 18:00:00 DS 12.4553 -127.832 PROVISIONAL 2139 2139 O_____________ nhc_working_bt EP092021 12.2000 -127.800 LO 25 1008 -3 1011 210 70 35 6 286
2021207N14248 2021 43 EP MM JIMENA 2021-08-01 21:00:00 DS 12.5352 -128.157 PROVISIONAL 2172 2164 P_____________ EP092021 12.1924 -128.170 LO 25 1008 -3 1011 195 70 7 282
2021207N14248 2021 43 EP MM JIMENA 2021-08-02 00:00:00 DS 12.6000 -128.533 PROVISIONAL 2189 2189 O_____________ nhc_working_bt EP092021 12.2000 -128.600 LO 25 1008 -3 1011 180 70 35 8 277
2021207N14248 2021 43 EP MM JIMENA 2021-08-02 03:00:00 DS 12.6369 -128.953 PROVISIONAL 2228 2227 P_____________ EP092021 12.2276 -129.115 LO 25 1008 -3 1011 180 70 8 276
2021207N14248 2021 43 EP MM JIMENA 2021-08-02 06:00:00 DS 12.6895 -129.375 PROVISIONAL 2247 2247 O_____________ nhc_working_bt EP092021 12.3000 -129.600 LO 25 1008 -3 1011 180 70 8 281
2021207N14248 2021 43 EP MM JIMENA 2021-08-02 09:00:00 DS 12.7898 -129.753 PROVISIONAL 2266 2266 P_____________ EP092021 12.4423 -129.908 LO 25 1008 -3 1011 180 70 8 285
2021207N14248 2021 43 EP MM JIMENA 2021-08-02 12:00:00 DS 12.8868 -130.135 PROVISIONAL 2279 2279 O_____________ nhc_working_bt EP092021 12.6000 -130.200 LO 25 1008 -3 1011 180 70 8 280
2021207N14248 2021 43 EP MM JIMENA 2021-08-02 15:00:00 DS 12.9341 -130.563 PROVISIONAL 2315 2315 P_____________ EP092021 12.7076 -130.635 LO 27 1007 -3 1011 180 70 9 274
2021207N14248 2021 43 EP MM JIMENA 2021-08-02 18:00:00 DS 12.9489 -131.011 PROVISIONAL 2344 2344 O_____________ nhc_working_bt EP092021 12.8000 -131.100 LO 30 1007 -3 1011 180 70 9 269
2021207N14248 2021 43 EP MM JIMENA 2021-08-02 21:00:00 DS 12.9243 -131.468 PROVISIONAL 2381 2381 P_____________ EP092021 12.8924 -131.515 LO 30 1007 -3 1011 150 70 9 269
2021207N14248 2021 43 EP MM JIMENA 2021-08-03 00:00:00 DS 12.9333 -131.900 PROVISIONAL 2411 2411 O_____________ nhc_working_bt EP092021 13.0000 -131.900 LO 30 1007 -3 1011 120 70 8 280
2021207N14248 2021 43 EP MM JIMENA 2021-08-03 03:00:00 DS 13.0646 -132.267 PROVISIONAL 2426 2426 P_____________ EP092021 13.1500 -132.272 LO 30 1007 -3 1011 120 70 7 295
2021207N14248 2021 43 EP MM JIMENA 2021-08-03 06:00:00 DS 13.2440 -132.591 PROVISIONAL 2441 2431 O_____________ nhc_working_bt EP092021 13.3000 -132.600 LO 30 1007 -3 1011 120 70 40 7 301
2021207N14248 2021 43 EP MM JIMENA 2021-08-03 09:00:00 DS 13.4295 -132.889 PROVISIONAL 2431 2403 P_____________ EP092021 13.4149 -132.865 LO 30 1007 -3 1011 120 70 6 301
2021207N14248 2021 43 EP MM JIMENA 2021-08-03 12:00:00 DS 13.5795 -133.156 PROVISIONAL 2393 2372 O_____________ nhc_working_bt EP092021 13.5000 -133.100 LO 30 1007 -3 1011 120 70 40 5 292
2021207N14248 2021 43 EP MM JIMENA 2021-08-03 15:00:00 DS 13.6237 -133.393 PROVISIONAL 2372 2348 P_____________ EP092021 13.5649 -133.335 LO 30 1007 -3 1011 120 70 5 280
2021207N14248 2021 43 EP MM JIMENA 2021-08-03 18:00:00 DS 13.6587 -133.635 PROVISIONAL 2348 2314 O_____________ nhc_working_bt EP092021 13.6000 -133.600 LO 30 1007 -3 1011 120 70 40 5 288
2021207N14248 2021 43 EP MM JIMENA 2021-08-03 21:00:00 DS 13.7900 -133.928 PROVISIONAL 2314 2280 P_____________ EP092021 13.6001 -133.950 LO 30 1007 -3 1010 130 70 6 295
2021207N14248 2021 43 EP MM JIMENA 2021-08-04 00:00:00 DS 13.9333 -134.233 PROVISIONAL 2280 2246 O_____________ nhc_working_bt EP092021 13.6000 -134.300 LO 30 1007 -3 1010 140 70 6 291
2021207N14248 2021 43 EP MM JIMENA 2021-08-04 03:00:00 DS 14.0136 -134.533 PROVISIONAL 2246 2211 P_____________ EP092021 13.6274 -134.573 LO 30 1007 -3 1010 140 70 6 284
2021207N14248 2021 43 EP MM JIMENA 2021-08-04 06:00:00 DS 14.0712 -134.800 PROVISIONAL 2211 2191 O_____________ nhc_working_bt EP092021 13.7000 -134.800 LO 30 1007 -3 1010 140 70 40 5 281
2021207N14248 2021 43 EP MM JIMENA 2021-08-04 09:00:00 DS 14.1033 -135.002 PROVISIONAL 2191 2167 P_____________ EP092021 13.8275 -135.008 LO 30 1007 -3 1010 140 70 4 285
2021207N14248 2021 43 EP MM JIMENA 2021-08-04 12:00:00 DS 14.1706 -135.187 PROVISIONAL 2167 2143 O_____________ nhc_working_bt EP092021 14.0000 -135.200 LO 30 1007 -3 1010 140 70 40 5 300
2021207N14248 2021 43 EP MM JIMENA 2021-08-04 15:00:00 DS 14.3329 -135.410 PROVISIONAL 2143 2115 P_____________ EP092021 14.1850 -135.400 LO 30 1007 -3 1010 140 55 6 311
2021207N14248 2021 43 EP MM JIMENA 2021-08-04 18:00:00 TS 14.5431 -135.631 PROVISIONAL 2115 2088 O_____________ nhc_working_bt EP092021 14.4000 -135.600 TD 30 1007 -1 1010 140 40 40 6 317
2021207N14248 2021 43 EP MM JIMENA 2021-08-04 21:00:00 TS 14.7569 -135.819 PROVISIONAL 2085 2057 P_____________ EP092021 14.6500 -135.800 TD 30 1007 -1 1010 130 40 6 320
2021207N14248 2021 43 EP MM JIMENA 2021-08-05 00:00:00 TS 14.9667 -136.000 PROVISIONAL 2057 2034 O_____________ nhc_working_bt EP092021 14.9000 -136.000 TD 30 1007 -1 1010 120 40 40 12 60 45 30 45 5 317
2021207N14248 2021 43 EP MM JIMENA 2021-08-05 03:00:00 TS 15.1504 -136.191 PROVISIONAL 2030 2007 P_____________ EP092021 15.1075 -136.200 TD 30 1006 -1 1010 120 40 12 60 45 30 45 5 315
2021207N14248 2021 43 EP MM JIMENA 2021-08-05 06:00:00 TS 15.3302 -136.379 PROVISIONAL 2007 1990 O_____________ nhc_working_bt EP092021 15.3000 -136.400 TD 30 1006 -1 1010 120 40 40 12 60 45 30 45 5 318
2021207N14248 2021 43 EP MM JIMENA 2021-08-05 09:00:00 TS 15.5285 -136.544 PROVISIONAL 1990 1964 P_____________ EP092021 15.4925 -136.600 TD 32 1005 -1 1010 120 40 5 321
2021207N14248 2021 43 EP MM JIMENA 2021-08-05 12:00:00 TS 15.7443 -136.720 PROVISIONAL 1964 1934 O_____________ nhc_working_bt EP092021 15.7000 -136.800 TS 35 1005 0 40 1010 120 40 45 6 319
2021207N14248 2021 43 EP MM JIMENA 2021-08-05 15:00:00 TS 15.9842 -136.948 PROVISIONAL 1934 1898 P_____________ EP092021 15.9500 -137.000 TS 35 1005 0 40 1010 120 40 7 318
2021207N14248 2021 43 EP MM JIMENA 2021-08-05 18:00:00 TS 16.2280 -137.177 PROVISIONAL 1898 1882 O_____________ nhc_working_bt EP092021 16.2000 -137.200 TS 35 1005 0 40 20 1010 120 40 45 12 30 30 30 6 321
2021207N14248 2021 43 EP MM JIMENA 2021-08-05 21:00:00 TS 16.4546 -137.347 PROVISIONAL 1880 1854 P_____________ EP092021 16.4074 -137.385 TS 35 1005 0 35 25 1010 120 35 12 30 30 30 6 322
2021207N14248 2021 43 EP MM JIMENA 2021-08-06 00:00:00 TS 16.6667 -137.533 PROVISIONAL 1854 1818 O_____________ nhc_working_bt EP092021 16.6000 -137.600 TS 35 1005 0 30 30 1010 120 30 45 12 30 30 30 6 313
2021207N14248 2021 43 EP MM JIMENA 2021-08-06 03:00:00 TS 16.8628 -137.802 PROVISIONAL 1818 1785 P_____________ EP092021 16.8074 -137.870 TS 35 1005 0 30 30 1010 120 30 12 30 30 7 303
2021207N14248 2021 43 EP MM JIMENA 2021-08-06 06:00:00 TS 17.0344 -138.122 PROVISIONAL 1785 1749 O_____________ nhc_working_bt EP092021 17.0000 -138.200 TS 35 1006 0 30 30 1010 120 30 45 12 30 30 7 296
2021207N14248 2021 43 EP MM JIMENA 2021-08-06 09:00:00 TS 17.1726 -138.463 PROVISIONAL 1738 1705 P_____________ EP092021 17.1650 -138.592 TS 35 1006 0 1011 120 30 12 30 30 7 290
2021207N14248 2021 43 EP MM JIMENA 2021-08-06 12:00:00 TS 17.2890 -138.844 PROVISIONAL 1705 1661 O_____________ nhc_working_bt EP092021 17.3000 -139.000 TS 35 1006 0 30 1012 120 30 45 12 30 30 8 286
2021207N14248 2021 43 EP MM JIMENA 2021-08-06 15:00:00 TS 17.3954 -139.273 PROVISIONAL 1651 1607 P_____________ EP092021 17.3999 -139.350 TS 32 1007 -1 1012 105 30 9 285
2021207N14248 2021 43 EP MM JIMENA 2021-08-06 18:00:00 TS 17.5073 -139.711 PROVISIONAL 1607 1563 O_____________ nhc_working_bt EP092021 17.5000 -139.700 TD 30 1008 -1 1012 90 30 40 8 287
2021207N14248 2021 43 EP CP JIMENA 2021-08-06 21:00:00 TS 17.6420 -140.123 PROVISIONAL 1563 1518 P_____________ EP092021 17.6350 -140.108 TD 30 1008 -1 1012 90 30 8 291
2021207N14248 2021 43 EP CP JIMENA 2021-08-07 00:00:00 DS 17.8000 -140.500 PROVISIONAL 1518 1483 O_____________ nhc_working_bt EP092021 17.8000 -140.500 LO 30 1009 -3 1012 90 30 40 12 45 7 297
2021207N14248 2021 43 EP CP JIMENA 2021-08-07 03:00:00 DS 17.9755 -140.823 PROVISIONAL 1483 1448 P_____________ EP092021 17.9848 -140.808 LO 27 1010 -3 1013 70 30 7 302
2021207N14248 2021 43 EP CP JIMENA 2021-08-07 06:00:00 DS 18.1754 -141.128 PROVISIONAL 1448 1403 O_____________ nhc_working_bt EP092021 18.2000 -141.100 LO 25 1012 -3 1015 50 30 8 305
2021207N14248 2021 43 EP CP JIMENA 2021-08-07 09:00:00 DS 18.4070 -141.481 PROVISIONAL 1403 1369 P_____________ EP092021 18.4576 -141.472 LO 25 1012 -3 1014 50 35 8 306
2021207N14248 2021 43 EP CP JIMENA 2021-08-07 12:00:00 DS 18.6315 -141.798 PROVISIONAL 1369 1346 O_____________ nhc_working_bt EP092021 18.7000 -141.800 LO 25 1013 -3 1014 50 40 6 310
2021207N14248 2021 43 EP CP JIMENA 2021-08-07 15:00:00 DS 18.8065 -141.989 PROVISIONAL 1346 1323 P_____________ EP092021 18.8647 -141.943 LO 25 1013 -3 1014 50 40 5 312
2021207N14248 2021 43 EP CP JIMENA 2021-08-07 18:00:00 DS 18.9635 -142.186 PROVISIONAL 1323 1291 O_____________ nhc_working_bt EP092021 19.0000 -142.100 LO 25 1013 -3 1014 50 40 6 304
2021207N14248 2021 43 EP CP JIMENA 2021-08-07 21:00:00 DS 19.1285 -142.503 PROVISIONAL 1291 1248 P_____________ EP092021 19.1454 -142.440 LO 22 1013 -3 1014 50 40 8 297
2021207N14248 2021 43 EP CP JIMENA 2021-08-08 00:00:00 DS 19.3000 -142.900 PROVISIONAL 1248 O_____________ nhc_working_bt EP092021 19.3000 -142.900 LO 20 1013 -3 1014 50 40 8 295

About IBTrACS Database

This database is a web-friendly format of International Best Track Archive for Climate Stewardship (IBTrACS), a global best track data archive curated by NOAA dating back to 1842.

Updated: 2021-12-03